Time;durP1;ratioP1;P1;durP2;ratioP2;P2;SDS_P1;SDS_P2;PMS_P1;PMS_P2;Temp;Humidity;BMP_temperature;BMP_pressure;BME280_temperature;BME280_humidity;BME280_pressure;Samples;Min_cycle;Max_cycle;Signal;HPM_P1;HPM_P2
2022/01/18 00:00:19;;;;;;;30.73;14.45;;;;;;;2.93;100.00;103863.38;5229239;28;20488;-64
2022/01/18 00:02:50;;;;;;;17.55;13.30;;;;;;;2.78;100.00;103865.53;5229358;28;20036;-62
2022/01/18 00:05:20;;;;;;;17.77;15.93;;;;;;;2.65;100.00;103871.06;5229046;28;20246;-62
2022/01/18 00:07:51;;;;;;;20.05;16.17;;;;;;;2.50;100.00;103883.03;5229056;28;20033;-60
2022/01/18 00:10:23;;;;;;;16.73;14.38;;;;;;;2.39;100.00;103875.09;5229111;28;20068;-61
2022/01/18 00:21:00;;;;;;;24.70;16.67;;;;;;;2.33;100.00;103856.91;5246515;28;20076;-61
2022/01/18 00:23:31;;;;;;;19.87;16.03;;;;;;;2.50;100.00;103861.69;5228159;28;20052;-62
2022/01/18 00:26:03;;;;;;;26.90;16.48;;;;;;;2.54;100.00;103871.16;5228661;28;20067;-61
2022/01/18 00:28:36;;;;;;;65.82;18.90;;;;;;;2.48;100.00;103869.00;5228845;28;20036;-60
2022/01/18 00:36:56;;;;;;;29.63;18.90;;;;;;;2.58;100.00;103877.06;5246676;28;20048;-61
2022/01/18 00:39:27;;;;;;;19.98;13.85;;;;;;;2.62;100.00;103886.47;5228510;28;20039;-62
2022/01/18 00:41:58;;;;;;;48.35;24.23;;;;;;;2.58;100.00;103879.75;5228532;28;20404;-62
2022/01/18 00:44:28;;;;;;;78.15;19.10;;;;;;;2.62;100.00;103886.47;5228253;28;20477;-62
2022/01/18 00:46:59;;;;;;;45.47;21.98;;;;;;;2.56;100.00;103889.69;5228436;28;20063;-62
2022/01/18 00:49:29;;;;;;;52.92;21.00;;;;;;;2.53;100.00;103887.28;5228535;28;20040;-62
2022/01/18 00:52:04;;;;;;;47.67;23.15;;;;;;;2.50;100.00;103883.03;5228302;28;20044;-62
2022/01/18 00:54:39;;;;;;;44.20;22.45;;;;;;;2.41;100.00;103859.81;5228335;28;20445;-62
2022/01/18 00:57:10;;;;;;;49.40;23.55;;;;;;;2.51;100.00;103889.22;5228274;28;20086;-61
2022/01/18 00:59:41;;;;;;;48.63;19.85;;;;;;;2.51;100.00;103895.41;5228208;28;20036;-62
2022/01/18 01:02:12;;;;;;;56.60;21.48;;;;;;;2.53;100.00;103904.13;5228144;28;20059;-59
2022/01/18 01:04:47;;;;;;;55.85;22.52;;;;;;;2.52;100.00;103907.78;5228269;28;20029;-62
2022/01/18 01:07:21;;;;;;;39.50;21.20;;;;;;;2.51;100.00;103913.22;5228391;28;20029;-61
2022/01/18 01:09:52;;;;;;;50.75;22.20;;;;;;;2.49;100.00;103913.34;5228263;28;20032;-62
2022/01/18 01:12:25;;;;;;;53.53;23.83;;;;;;;2.46;100.00;103908.28;5228451;28;20492;-62
2022/01/18 01:15:04;;;;;;;40.13;19.60;;;;;;;2.44;100.00;103904.88;5227799;28;20051;-63
2022/01/18 01:34:23;;;;;;;30.30;19.50;;;;;;;2.38;100.00;103918.72;5248348;28;20124;-60
2022/01/18 01:45:15;;;;;;;57.45;22.33;;;;;;;2.31;100.00;103905.03;5206303;28;20259;-62
2022/01/18 01:47:50;;;;;;;31.75;18.88;;;;;;;2.29;100.00;103907.03;5233830;28;20541;-62
2022/01/18 01:50:24;;;;;;;34.00;20.45;;;;;;;2.19;100.00;103894.56;5233408;28;20040;-61
2022/01/18 01:52:56;;;;;;;24.17;20.10;;;;;;;2.14;100.00;103886.94;5233473;28;20036;-62
2022/01/18 01:55:26;;;;;;;24.20;20.10;;;;;;;2.17;100.00;103900.03;5233140;28;20687;-62
2022/01/18 01:57:57;;;;;;;37.50;18.55;;;;;;;2.18;100.00;103904.38;5234036;28;20032;-60
2022/01/18 02:00:27;;;;;;;25.40;15.88;;;;;;;2.19;100.00;103913.22;5233889;28;20028;-62
2022/01/18 02:02:58;;;;;;;27.25;17.80;;;;;;;2.19;100.00;103921.22;5234059;28;20032;-60
2022/01/18 02:05:28;;;;;;;38.58;18.85;;;;;;;2.18;100.00;103916.88;5233264;28;20033;-62
2022/01/18 02:07:59;;;;;;;18.48;15.90;;;;;;;2.20;100.00;103923.78;5233221;28;20081;-62
2022/01/18 02:10:29;;;;;;;20.73;18.35;;;;;;;2.21;100.00;103920.13;5232602;28;20052;-62
2022/01/18 02:13:00;;;;;;;23.88;18.83;;;;;;;2.21;100.00;103917.47;5232399;28;20059;-61
2022/01/18 02:15:30;;;;;;;20.00;18.23;;;;;;;2.15;100.00;103903.78;5231964;28;20086;-62
2022/01/18 02:23:39;;;;;;;49.58;19.40;;;;;;;2.17;100.00;103902.69;5250716;28;20459;-66
2022/01/18 02:26:10;;;;;;;25.50;16.90;;;;;;;2.09;100.00;103898.94;5233378;28;20033;-62
2022/01/18 02:28:40;;;;;;;22.58;19.35;;;;;;;2.14;100.00;103899.41;5233456;28;20048;-62
2022/01/18 02:31:10;;;;;;;60.30;20.02;;;;;;;2.12;100.00;103896.88;5233214;28;20551;-62
2022/01/18 02:33:41;;;;;;;37.50;18.13;;;;;;;2.10;100.00;103895.31;5233495;28;20400;-60
2022/01/18 02:36:11;;;;;;;51.45;20.02;;;;;;;2.10;100.00;103895.31;5232745;28;20535;-61
2022/01/18 02:38:42;;;;;;;90.97;25.10;;;;;;;1.91;100.00;103878.16;5232583;28;20396;-62
2022/01/18 02:41:25;;;;;;;64.50;21.13;;;;;;;2.09;100.00;103901.63;5231848;28;20032;-62
2022/01/18 02:43:58;;;;;;;28.42;18.88;;;;;;;2.11;100.00;103897.00;5232530;28;20116;-61
2022/01/18 02:46:29;;;;;;;50.58;20.17;;;;;;;2.10;100.00;103897.97;5231656;28;20025;-62
2022/01/18 02:49:00;;;;;;;46.28;22.92;;;;;;;2.06;100.00;103893.88;5232363;28;20056;-61
2022/01/18 02:51:32;;;;;;;48.33;20.17;;;;;;;2.10;100.00;103901.50;5250221;28;20037;-62
2022/01/18 02:54:08;;;;;;;29.33;19.85;;;;;;;2.13;100.00;103895.91;5232066;28;20036;-61
2022/01/18 02:56:46;;;;;;;39.30;21.17;;;;;;;2.12;100.00;103896.03;5231651;28;20117;-61
2022/01/18 02:59:36;;;;;;;47.60;17.20;;;;;;;2.17;100.00;103893.84;5231678;28;20446;-60
2022/01/18 03:05:14;;;;;;;23.17;17.00;;;;;;;2.06;100.00;103865.41;5249110;28;20075;-62
2022/01/18 03:07:44;;;;;;;32.72;18.80;;;;;;;2.12;100.00;103880.03;5231234;28;20451;-62
2022/01/18 03:10:16;;;;;;;40.55;22.88;;;;;;;2.19;100.00;103905.22;5231520;28;20055;-62
2022/01/18 03:12:47;;;;;;;46.38;21.20;;;;;;;2.18;100.00;103899.06;5231667;28;20408;-62
2022/01/18 03:15:17;;;;;;;33.85;17.38;;;;;;;2.20;100.00;103897.09;5230815;28;20083;-63
2022/01/18 03:17:47;;;;;;;25.67;19.58;;;;;;;2.23;100.00;103898.69;5231506;28;20025;-61
2022/01/18 03:20:19;;;;;;;63.15;19.83;;;;;;;2.24;100.00;103897.72;5231547;28;20032;-61
2022/01/18 03:22:50;;;;;;;37.55;19.27;;;;;;;2.26;100.00;103896.59;5231781;28;20047;-62
2022/01/18 03:25:41;;;;;;;29.77;18.98;;;;;;;2.30;100.00;103902.53;5231222;28;20039;-61
2022/01/18 03:28:12;;;;;;;33.40;18.48;;;;;;;2.32;100.00;103904.06;5230925;28;20043;-62
2022/01/18 03:30:45;;;;;;;24.40;17.25;;;;;;;2.34;100.00;103898.63;5230666;28;20033;-60
2022/01/18 03:33:17;;;;;;;31.08;19.27;;;;;;;2.34;100.00;103901.28;5231132;28;20439;-62
2022/01/18 03:35:49;;;;;;;40.50;22.02;;;;;;;2.37;100.00;103901.88;5230974;28;20033;-61
2022/01/18 03:38:22;;;;;;;48.53;21.42;;;;;;;2.33;100.00;103895.09;5249656;28;20404;-62
2022/01/18 03:40:52;;;;;;;31.40;16.98;;;;;;;2.41;100.00;103902.47;5230476;28;20538;-62
2022/01/18 03:43:23;;;;;;;24.90;17.08;;;;;;;2.44;100.00;103910.22;5230339;28;20048;-60
2022/01/18 03:46:00;;;;;;;33.65;19.08;;;;;;;2.43;100.00;103902.34;5230617;28;20032;-61
2022/01/18 03:48:35;;;;;;;22.00;20.05;;;;;;;2.48;100.00;103901.00;5230448;28;20568;-62
2022/01/18 03:51:07;;;;;;;23.13;17.75;;;;;;;2.46;100.00;103897.59;5230371;28;20123;-62
2022/01/18 03:53:38;;;;;;;20.40;18.40;;;;;;;2.49;100.00;103902.69;5230033;28;20042;-63
2022/01/18 03:56:09;;;;;;;23.63;18.27;;;;;;;2.49;100.00;103900.03;5229923;28;20032;-61
2022/01/18 03:58:39;;;;;;;22.77;20.45;;;;;;;2.41;100.00;103897.13;5229777;28;20040;-62
2022/01/18 04:01:10;;;;;;;19.50;17.83;;;;;;;2.54;100.00;103912.97;5230226;28;20044;-61
2022/01/18 04:03:40;;;;;;;18.98;17.38;;;;;;;2.47;100.00;103907.31;5229683;28;20342;-60
2022/01/18 04:06:11;;;;;;;19.55;17.83;;;;;;;2.56;100.00;103922.56;5229992;28;20098;-62
2022/01/18 04:08:41;;;;;;;22.60;20.70;;;;;;;2.56;100.00;103925.22;5229933;28;20032;-63
2022/01/18 04:11:12;;;;;;;20.33;18.20;;;;;;;2.59;100.00;103927.63;5229529;28;20059;-63
2022/01/18 04:13:42;;;;;;;19.83;18.20;;;;;;;2.60;100.00;103936.47;5229350;28;20050;-61
2022/01/18 04:16:14;;;;;;;22.50;20.27;;;;;;;2.55;100.00;103931.53;5229800;28;20515;-61
2022/01/18 04:27:18;;;;;;;20.45;17.73;;;;;;;2.63;100.00;103937.03;5247419;28;20063;-63
2022/01/18 04:29:49;;;;;;;19.33;16.77;;;;;;;2.64;100.00;103927.22;5228992;28;20032;-62
2022/01/18 04:32:20;;;;;;;23.02;18.45;;;;;;;2.60;100.00;103931.97;5229455;28;20039;-62
2022/01/18 04:34:50;;;;;;;29.30;21.13;;;;;;;2.58;100.00;103914.41;5228872;28;20488;-63
2022/01/18 04:37:21;;;;;;;22.10;16.63;;;;;;;2.62;100.00;103935.34;5228522;28;20450;-62
2022/01/18 04:39:51;;;;;;;19.02;17.42;;;;;;;2.61;100.00;103925.66;5228933;28;20299;-62
2022/01/18 04:50:43;;;;;;;17.30;15.65;;;;;;;2.70;100.00;103921.38;5247433;28;20044;-62
2022/01/18 04:53:13;;;;;;;25.10;16.02;;;;;;;2.66;100.00;103925.28;5229658;28;20036;-61
2022/01/18 04:55:44;;;;;;;19.52;17.67;;;;;;;2.69;100.00;103927.69;5229129;28;20036;-62
2022/01/18 04:58:14;;;;;;;19.90;17.67;;;;;;;2.69;100.00;103936.53;5229177;28;20119;-63
2022/01/18 05:00:45;;;;;;;21.35;19.42;;;;;;;2.68;100.00;103926.84;5228817;28;20028;-62
2022/01/18 05:03:15;;;;;;;23.10;20.85;;;;;;;2.67;100.00;103933.16;5228351;28;20044;-62
2022/01/18 05:05:48;;;;;;;26.13;19.60;;;;;;;2.66;100.00;103938.63;5227565;28;20028;-63
2022/01/18 05:08:20;;;;;;;19.83;18.30;;;;;;;2.69;100.00;103939.22;5228024;28;20405;-63
2022/01/18 05:10:56;;;;;;;22.35;18.95;;;;;;;2.70;100.00;103950.72;5227954;28;20039;-63
2022/01/18 05:13:59;;;;;;;27.48;20.48;;;;;;;2.69;100.00;103946.38;5227755;28;20447;-62
2022/01/18 05:16:48;;;;;;;18.88;16.77;;;;;;;2.66;100.00;103950.13;5228276;28;20033;-62
2022/01/18 05:19:41;;;;;;;18.50;16.35;;;;;;;2.06;100.00;103848.56;5227981;28;20032;-62
2022/01/18 05:25:00;;;;;;;27.30;18.30;;;;;;;2.55;100.00;103936.88;5246160;28;20046;-62
2022/01/18 05:27:31;;;;;;;24.63;19.70;;;;;;;2.63;100.00;103963.72;5228170;28;20381;-62
2022/01/18 05:30:02;;;;;;;24.48;21.02;;;;;;;2.66;100.00;103957.28;5228034;28;20087;-62
2022/01/18 05:32:32;;;;;;;27.75;19.67;;;;;;;2.55;100.00;103934.19;5227782;28;20033;-62
2022/01/18 05:35:03;;;;;;;20.63;18.58;;;;;;;2.70;100.00;103954.25;5227884;28;20040;-62
2022/01/18 05:37:34;;;;;;;23.30;20.02;;;;;;;2.65;100.00;103940.44;5227620;28;20036;-63
2022/01/18 05:40:05;;;;;;;28.52;20.80;;;;;;;2.69;100.00;103939.22;5227820;28;20492;-63
2022/01/18 05:42:36;;;;;;;21.17;19.27;;;;;;;2.67;100.00;103946.50;5225681;28;20024;-62
2022/01/18 05:45:06;;;;;;;23.13;19.30;;;;;;;2.64;100.00;103944.06;5245020;28;20090;-61
2022/01/18 05:47:39;;;;;;;18.77;16.92;;;;;;;2.62;100.00;103948.69;5227607;28;20040;-63
2022/01/18 05:50:12;;;;;;;23.23;20.45;;;;;;;2.59;100.00;103940.97;5227802;28;20033;-62
2022/01/18 05:52:43;;;;;;;18.67;16.65;;;;;;;2.57;100.00;103936.75;5227486;28;20032;-63
2022/01/18 05:55:14;;;;;;;18.90;17.08;;;;;;;2.63;100.00;103946.88;5227210;28;20122;-61
2022/01/18 05:57:45;;;;;;;20.35;17.33;;;;;;;2.59;100.00;103946.31;5227484;28;20047;-62
2022/01/18 06:00:22;;;;;;;24.05;16.05;;;;;;;2.51;100.00;103935.41;5227481;28;20029;-63
2022/01/18 06:08:15;;;;;;;21.20;19.35;;;;;;;2.51;100.00;103940.75;5245501;28;20132;-63
2022/01/18 06:10:46;;;;;;;23.55;17.75;;;;;;;2.62;100.00;103961.19;5227260;28;20119;-63
2022/01/18 06:13:17;;;;;;;24.13;21.55;;;;;;;2.63;100.00;103963.72;5227086;28;20078;-63
2022/01/18 06:15:47;;;;;;;18.95;17.48;;;;;;;2.66;100.00;103960.81;5227170;28;20066;-60
2022/01/18 06:18:18;;;;;;;21.13;18.95;;;;;;;2.63;100.00;103953.06;5227667;28;20033;-62
2022/01/18 06:20:48;;;;;;;20.55;18.50;;;;;;;2.63;100.00;103961.06;5229338;28;20033;-63
2022/01/18 06:23:20;;;;;;;20.70;18.60;;;;;;;2.63;100.00;103953.06;5230950;28;20060;-62
2022/01/18 06:25:51;;;;;;;25.85;20.00;;;;;;;2.66;100.00;103963.47;5230763;28;20129;-63
2022/01/18 06:28:21;;;;;;;22.75;20.08;;;;;;;2.60;100.00;103953.31;5231065;28;20492;-62
2022/01/18 06:30:52;;;;;;;23.05;20.60;;;;;;;2.49;100.00;103929.38;5230487;28;20131;-62
2022/01/18 06:33:22;;;;;;;24.42;20.45;;;;;;;2.69;100.00;103963.22;5248210;28;20040;-63
2022/01/18 06:35:53;;;;;;;24.98;20.58;;;;;;;2.72;100.00;103968.31;5231460;28;20028;-63
2022/01/18 06:38:23;;;;;;;20.27;18.38;;;;;;;2.61;100.00;103949.66;5247012;28;20031;-63
2022/01/18 06:40:54;;;;;;;24.73;21.40;;;;;;;2.75;100.00;103955.69;5230932;28;20139;-63
2022/01/18 06:43:24;;;;;;;666.92;607.88;;;;;;;2.72;100.00;103954.97;5230718;28;20028;-63
2022/01/18 06:45:55;;;;;;;31.30;28.17;;;;;;;2.74;100.00;103952.16;5249079;28;20107;-61
2022/01/18 06:48:25;;;;;;;23.70;21.67;;;;;;;2.45;100.00;103911.91;5231054;28;20078;-61
2022/01/18 06:50:56;;;;;;;23.90;21.73;;;;;;;2.72;100.00;103962.97;5230876;28;20068;-62
2022/01/18 06:53:31;;;;;;;26.02;23.38;;;;;;;2.71;100.00;103961.28;5230597;28;20050;-62
2022/01/18 06:56:02;;;;;;;21.08;19.20;;;;;;;2.65;100.00;103955.59;5230847;28;20036;-62
2022/01/18 06:58:32;;;;;;;22.25;20.17;;;;;;;2.70;100.00;103959.56;5230750;28;20074;-62
2022/01/18 07:01:03;;;;;;;23.98;21.80;;;;;;;2.70;100.00;103967.59;5230498;28;20056;-62
2022/01/18 07:03:33;;;;;;;23.10;21.00;;;;;;;2.67;100.00;103965.16;5248227;28;20162;-62
2022/01/18 07:06:04;;;;;;;39.58;21.40;;;;;;;2.71;100.00;103974.63;5230468;28;20042;-60
2022/01/18 07:08:35;;;;;;;22.13;20.23;;;;;;;2.69;100.00;103968.56;5230586;28;20484;-61
2022/01/18 07:11:06;;;;;;;26.40;23.63;;;;;;;2.68;100.00;103974.03;5230582;28;20032;-62
2022/01/18 07:13:36;;;;;;;26.30;21.63;;;;;;;2.69;100.00;103971.22;5230012;28;20031;-61
2022/01/18 07:16:07;;;;;;;25.70;23.13;;;;;;;2.67;100.00;103965.16;5230258;28;20028;-61
2022/01/18 07:18:38;;;;;;;23.45;21.02;;;;;;;2.63;100.00;103965.53;5231974;28;20388;-62
2022/01/18 07:21:09;;;;;;;28.95;19.20;;;;;;;2.67;100.00;103962.50;5232984;28;20063;-62
2022/01/18 07:23:40;;;;;;;23.42;21.35;;;;;;;2.68;100.00;103969.53;5233436;28;20664;-62
2022/01/18 07:26:11;;;;;;;27.33;23.38;;;;;;;2.70;100.00;103966.75;5232693;28;20036;-62
2022/01/18 07:28:41;;;;;;;21.70;19.63;;;;;;;2.61;100.00;103962.16;5233123;28;20040;-61
2022/01/18 07:31:12;;;;;;;22.27;19.90;;;;;;;2.64;100.00;103954.75;5232024;28;20043;-62
2022/01/18 07:33:42;;;;;;;30.92;20.48;;;;;;;2.67;100.00;103967.00;5249549;28;20032;-62
2022/01/18 07:36:13;;;;;;;26.48;22.23;;;;;;;2.68;100.00;103966.03;5231880;28;20037;-62
2022/01/18 07:38:43;;;;;;;31.90;21.90;;;;;;;2.65;100.00;103958.25;5231464;28;20038;-62
2022/01/18 07:41:14;;;;;;;26.30;19.63;;;;;;;2.72;100.00;103967.47;5231261;28;20420;-61
2022/01/18 07:43:44;;;;;;;21.92;19.35;;;;;;;2.71;100.00;103963.94;5231514;28;20408;-61
2022/01/18 07:46:14;;;;;;;23.17;20.80;;;;;;;2.75;100.00;103971.69;5231616;28;20037;-61
2022/01/18 07:48:45;;;;;;;23.52;20.98;;;;;;;2.71;100.00;103971.09;5231385;28;20119;-61
2022/01/18 07:51:16;;;;;;;23.90;16.83;;;;;;;2.79;100.00;103967.81;5230990;28;20507;-62
2022/01/18 07:53:46;;;;;;;18.33;16.35;;;;;;;2.78;100.00;103971.44;5230594;28;20028;-60
2022/01/18 07:56:17;;;;;;;20.67;18.48;;;;;;;2.78;100.00;103966.09;5230577;28;20051;-61
2022/01/18 07:58:47;;;;;;;21.90;18.42;;;;;;;2.78;100.00;103976.78;5230642;28;20063;-59
2022/01/18 08:01:19;;;;;;;21.38;19.38;;;;;;;2.81;100.00;103988.06;5230475;28;20039;-61
2022/01/18 08:03:50;;;;;;;24.45;19.27;;;;;;;2.83;100.00;103980.75;5229253;28;20502;-61
2022/01/18 08:06:20;;;;;;;22.48;20.20;;;;;;;2.85;100.00;103985.97;5229664;28;20028;-61
2022/01/18 08:08:50;;;;;;;27.58;21.77;;;;;;;2.87;100.00;103986.69;5230243;28;20040;-61
2022/01/18 08:11:21;;;;;;;21.88;19.63;;;;;;;2.87;100.00;103990.22;5230785;28;20039;-59
2022/01/18 08:13:51;;;;;;;36.70;23.42;;;;;;;2.76;100.00;103976.06;5228699;28;20127;-60
2022/01/18 08:19:01;;;;;;;23.48;20.95;;;;;;;2.99;100.00;103999.00;5240559;28;20032;-61
2022/01/18 08:21:32;;;;;;;28.02;22.17;;;;;;;3.05;100.00;103990.47;5229767;28;20052;-60
2022/01/18 08:24:02;;;;;;;25.50;22.48;;;;;;;3.02;100.00;103986.22;5229620;28;20060;-61
2022/01/18 08:26:33;;;;;;;23.30;20.85;;;;;;;3.04;100.00;103986.97;5230116;28;20036;-61
2022/01/18 08:29:04;;;;;;;23.73;20.50;;;;;;;3.00;100.00;103982.84;5229896;28;20106;-60
2022/01/18 08:31:34;;;;;;;27.40;23.35;;;;;;;3.02;100.00;103974.72;5229646;28;20043;-61
2022/01/18 08:34:04;;;;;;;22.38;19.38;;;;;;;3.14;100.00;103996.88;5229846;28;20036;-61
2022/01/18 08:36:36;;;;;;;23.23;21.08;;;;;;;3.14;100.00;103981.69;5229679;28;20046;-61
2022/01/18 08:39:07;;;;;;;21.40;19.48;;;;;;;3.20;100.00;103989.16;5230037;28;20036;-62
2022/01/18 08:41:47;;;;;;;22.80;20.70;;;;;;;3.28;100.00;103983.16;5230067;28;20041;-62
2022/01/18 08:44:17;;;;;;;31.73;22.40;;;;;;;3.34;100.00;103986.16;5228432;28;20070;-61
2022/01/18 08:46:48;;;;;;;22.95;20.73;;;;;;;3.37;100.00;103991.25;5247254;28;20060;-61
2022/01/18 08:49:18;;;;;;;23.08;20.85;;;;;;;3.32;100.00;103980.09;5229662;28;20028;-62
2022/01/18 08:51:49;;;;;;;27.17;21.85;;;;;;;3.32;100.00;103976.59;5229922;28;20040;-60
2022/01/18 08:54:19;;;;;;;21.75;19.70;;;;;;;3.34;100.00;103977.31;5229447;28;20047;-61
2022/01/18 08:56:50;;;;;;;24.92;22.30;;;;;;;3.46;100.00;103988.78;5229499;28;20131;-60
2022/01/18 08:59:21;;;;;;;24.38;21.02;;;;;;;3.48;100.00;103982.28;5229878;28;20500;-61
2022/01/18 09:01:52;;;;;;;25.75;23.13;;;;;;;3.59;100.00;103987.56;5229035;28;20097;-61
2022/01/18 09:04:22;;;;;;;33.88;24.08;;;;;;;3.62;100.00;103976.59;5228910;28;20028;-62
2022/01/18 09:06:53;;;;;;;30.13;27.33;;;;;;;3.69;100.00;103975.09;5228986;28;20032;-63
2022/01/18 09:09:25;;;;;;;32.53;29.35;;;;;;;3.78;100.00;103975.25;5228966;28;20119;-63
2022/01/18 09:11:56;;;;;;;35.42;30.13;;;;;;;3.82;100.00;103976.69;5229096;28;20037;-61
2022/01/18 09:14:27;;;;;;;46.25;28.40;;;;;;;3.88;100.00;103962.78;5229218;28;20045;-63
2022/01/18 09:16:57;;;;;;;38.67;29.98;;;;;;;3.67;100.00;103904.91;5228436;28;20028;-62
2022/01/18 09:19:28;;;;;;;29.83;26.90;;;;;;;4.14;100.00;103955.09;5228905;28;20075;-60
2022/01/18 09:22:00;;;;;;;29.80;27.00;;;;;;;4.05;100.00;103938.03;5228823;28;20373;-61
2022/01/18 09:24:31;;;;;;;34.85;30.48;;;;;;;4.13;100.00;103962.28;5228475;28;20040;-62
2022/01/18 09:27:02;;;;;;;30.13;26.48;;;;;;;4.08;100.00;103964.50;5228532;28;20484;-64
2022/01/18 09:29:34;;;;;;;28.05;25.15;;;;;;;4.08;100.00;103965.34;5228253;28;20123;-63
2022/01/18 09:32:04;;;;;;;31.27;26.83;;;;;;;4.06;100.00;103961.13;5228300;28;20094;-64
2022/01/18 09:34:35;;;;;;;29.38;25.20;;;;;;;3.98;100.00;103964.50;5228013;28;20072;-63
2022/01/18 09:37:05;;;;;;;33.22;25.63;;;;;;;4.01;100.00;103974.09;5228204;28;20119;-63
2022/01/18 09:39:36;;;;;;;28.42;25.77;;;;;;;3.90;100.00;103939.44;5228061;28;20082;-64
2022/01/18 09:42:09;;;;;;;45.58;26.00;;;;;;;4.12;100.00;103975.78;5228071;28;20123;-64
2022/01/18 09:44:40;;;;;;;35.45;26.08;;;;;;;4.14;100.00;103982.69;5227828;28;20036;-63
2022/01/18 09:47:11;;;;;;;32.75;27.35;;;;;;;4.19;100.00;103979.63;5227907;28;20463;-63
2022/01/18 09:49:41;;;;;;;32.17;25.25;;;;;;;4.27;100.00;103985.97;5228125;28;20082;-64
2022/01/18 09:52:12;;;;;;;35.22;25.17;;;;;;;4.40;100.00;103985.69;5228105;28;20029;-63
2022/01/18 09:54:43;;;;;;;35.47;26.85;;;;;;;4.55;100.00;104000.38;5227874;28;20055;-64
2022/01/18 09:57:13;;;;;;;41.15;25.60;;;;;;;4.69;100.00;103997.28;5231778;28;20150;-62
2022/01/18 09:59:44;;;;;;;39.40;28.38;;;;;;;4.74;100.00;103989.69;5231852;28;20024;-63
2022/01/18 10:02:14;;;;;;;38.90;28.23;;;;;;;4.91;100.00;103995.31;5231781;28;20042;-64
2022/01/18 10:04:47;;;;;;;31.27;23.60;;;;;;;5.00;100.00;104006.00;5231720;28;20388;-64
2022/01/18 10:07:33;;;;;;;27.67;24.67;;;;;;;5.08;100.00;104002.63;5231600;28;20036;-63
2022/01/18 10:10:06;;;;;;;26.63;24.33;;;;;;;5.14;100.00;103996.72;5231858;28;20127;-64
2022/01/18 10:12:36;;;;;;;25.33;22.90;;;;;;;5.13;100.00;103986.13;5231781;28;20090;-63
2022/01/18 10:15:07;;;;;;;33.10;23.85;;;;;;;5.12;100.00;103985.28;5231984;28;20439;-64
2022/01/18 10:17:39;;;;;;;24.63;22.35;;;;;;;5.20;100.00;103996.09;5232217;28;20036;-64
2022/01/18 10:20:15;;;;;;;25.25;21.23;;;;;;;5.30;100.00;103990.75;5231500;28;20123;-63
2022/01/18 10:22:49;;;;;;;24.40;21.90;;;;;;;5.39;100.00;103984.53;5231907;28;20055;-64
2022/01/18 10:25:25;;;;;;;32.80;22.92;;;;;;;5.42;100.00;103982.41;5231496;28;20032;-63
2022/01/18 10:27:56;;;;;;;31.13;24.88;;;;;;;5.61;100.00;103994.03;5231148;28;20412;-64
2022/01/18 10:30:35;;;;;;;42.67;24.48;;;;;;;5.68;100.00;103996.00;5231342;28;20036;-64
2022/01/18 10:33:18;;;;;;;29.92;21.98;;;;;;;5.74;100.00;103991.88;5232064;28;20036;-63
2022/01/18 10:36:12;;;;;;;26.75;23.98;;;;;;;5.88;100.00;103990.53;5232053;28;20497;-64
2022/01/18 10:38:47;;;;;;;29.20;24.55;;;;;;;6.00;100.00;103978.66;5231381;28;20098;-64
2022/01/18 10:41:33;;;;;;;32.70;22.80;;;;;;;6.04;100.00;103972.84;5231283;28;20032;-62
2022/01/18 10:44:15;;;;;;;30.98;27.70;;;;;;;6.05;100.00;103968.34;5231399;28;20040;-64
2022/01/18 10:46:52;;;;;;;33.15;25.17;;;;;;;6.09;100.00;103975.06;5231681;28;20564;-64
2022/01/18 10:49:40;;;;;;;30.23;26.98;;;;;;;6.10;100.00;103966.88;5231221;28;20028;-64
2022/01/18 10:52:15;;;;;;;29.63;26.00;;;;;;;6.02;100.00;103961.44;5231280;28;20074;-64
2022/01/18 10:54:52;;;;;;;32.97;29.50;;;;;;;5.98;100.00;103960.03;5231108;28;20036;-64
2022/01/18 10:57:25;;;;;;;39.38;28.85;;;;;;;5.91;100.00;103953.56;5231216;28;20032;-63
2022/01/18 11:00:08;;;;;;;32.85;29.33;;;;;;;5.79;100.00;103960.09;5231049;28;20407;-63
2022/01/18 11:02:41;;;;;;;33.17;28.02;;;;;;;5.66;100.00;103949.72;5231486;28;20421;-64
2022/01/18 11:05:16;;;;;;;34.30;30.45;;;;;;;5.68;100.00;103952.25;5230786;28;20029;-63
2022/01/18 11:07:48;;;;;;;36.92;30.15;;;;;;;5.63;100.00;103955.38;5230837;28;20516;-64
2022/01/18 11:10:22;;;;;;;44.40;30.50;;;;;;;5.61;100.00;103948.47;5230713;28;20032;-64
2022/01/18 11:12:57;;;;;;;38.13;32.40;;;;;;;5.63;100.00;103944.66;5230868;28;20435;-64
2022/01/18 11:15:28;;;;;;;37.05;30.83;;;;;;;5.67;100.00;103940.69;5230565;28;20032;-63
2022/01/18 11:18:06;;;;;;;48.70;32.08;;;;;;;5.65;100.00;103939.13;5230432;28;20128;-64
2022/01/18 11:20:38;;;;;;;36.42;31.13;;;;;;;5.67;100.00;103937.16;5230394;28;20070;-63
2022/01/18 11:23:09;;;;;;;38.05;33.08;;;;;;;5.72;100.00;103930.38;5230460;28;20381;-64
2022/01/18 11:25:40;;;;;;;40.97;34.78;;;;;;;5.77;100.00;103927.25;5230243;28;20033;-66
2022/01/18 11:28:11;;;;;;;47.58;32.80;;;;;;;5.80;100.00;103924.22;5230852;28;20458;-63
2022/01/18 11:30:45;;;;;;;46.08;35.28;;;;;;;5.75;100.00;103923.84;5230805;28;20120;-65
2022/01/18 11:33:18;;;;;;;44.00;32.95;;;;;;;5.74;100.00;103914.13;5230475;28;20040;-64
2022/01/18 11:35:58;;;;;;;40.72;36.42;;;;;;;5.74;100.00;103916.81;5230907;28;20040;-63
2022/01/18 11:38:51;;;;;;;39.67;35.35;;;;;;;5.85;100.00;103911.22;5230742;28;20496;-64
2022/01/18 11:41:34;;;;;;;40.97;35.83;;;;;;;6.05;100.00;103914.69;5230658;28;20123;-63
2022/01/18 11:44:14;;;;;;;44.42;36.90;;;;;;;6.14;100.00;103915.59;5230779;28;20044;-63
2022/01/18 11:46:55;;;;;;;;;;;;;;;6.27;100.00;103916.06;5230943;28;20554;-66
2022/01/18 11:49:30;;;;;;;50.15;36.85;;;;;;;6.26;100.00;103903.66;5230595;28;19914;-62
2022/01/18 11:52:31;;;;;;;47.10;35.80;;;;;;;6.43;100.00;103910.84;5230479;28;20569;-64
2022/01/18 11:55:03;;;;;;;52.35;35.40;;;;;;;6.57;100.00;103899.56;5230327;28;20032;-64
2022/01/18 11:57:34;;;;;;;38.75;34.33;;;;;;;6.71;100.00;103901.69;5230523;28;20063;-64
2022/01/18 12:00:11;;;;;;;42.83;35.28;;;;;;;6.76;100.00;103895.84;5230350;28;20044;-64
2022/01/18 12:02:44;;;;;;;44.17;34.70;;;;;;;6.89;100.00;103898.16;5230364;28;20039;-64
2022/01/18 12:05:19;;;;;;;49.55;35.55;;;;;;;6.91;100.00;103888.09;5229934;28;20085;-64
2022/01/18 12:07:53;;;;;;;44.28;32.35;;;;;;;6.93;100.00;103886.91;5230113;28;20056;-63
2022/01/18 12:10:38;;;;;;;35.55;30.50;;;;;;;6.90;100.00;103881.88;5229966;28;20113;-63
2022/01/18 12:13:24;;;;;;;35.75;30.95;;;;;;;6.88;100.00;103877.66;5229799;28;20420;-64
2022/01/18 12:15:57;;;;;;;41.05;35.55;;;;;;;6.81;100.00;103871.22;5230124;28;20032;-64
2022/01/18 12:18:29;;;;;;;51.17;32.83;;;;;;;6.83;100.00;103875.44;5229335;28;20492;-64
2022/01/18 12:21:03;;;;;;;42.78;32.50;;;;;;;6.91;100.00;103875.50;5229688;28;20024;-64
2022/01/18 12:23:34;;;;;;;48.65;32.05;;;;;;;6.99;100.00;103861.25;5229712;28;20036;-62
2022/01/18 12:26:28;;;;;;;34.05;30.40;;;;;;;7.05;100.00;103864.16;5229835;28;20090;-63
2022/01/18 12:29:36;;;;;;;42.38;30.88;;;;;;;7.16;100.00;103860.38;5230597;28;20130;-63
2022/01/18 12:34:47;;;;;;;36.13;29.92;;;;;;;7.24;100.00;103860.38;5247704;28;20039;-64
2022/01/18 12:37:19;;;;;;;28.70;25.23;;;;;;;7.30;100.00;103856.22;5229857;28;20540;-63
2022/01/18 12:39:49;;;;;;;35.55;28.25;;;;;;;7.31;100.00;103856.06;5229895;28;20051;-63
2022/01/18 12:45:22;;;;;;;32.28;28.83;;;;;;;7.19;100.00;103854.66;5247662;28;20097;-64
2022/01/18 12:48:09;;;;;;;40.15;26.60;;;;;;;7.17;100.00;103862.03;5247866;28;20028;-64
2022/01/18 12:50:46;;;;;;;41.53;26.15;;;;;;;7.20;100.00;103850.97;5230814;28;20516;-63
2022/01/18 12:53:28;;;;;;;60.95;28.80;;;;;;;7.37;100.00;103850.03;5230450;28;20115;-64
2022/01/18 12:56:06;;;;;;;37.88;26.48;;;;;;;7.56;100.00;103850.75;5230170;28;20044;-64